Time;durP1;ratioP1;P1;durP2;ratioP2;P2;SDS_P1;SDS_P2;PMS_P1;PMS_P2;Temp;Humidity;BMP_temperature;BMP_pressure;BME280_temperature;BME280_humidity;BME280_pressure;Samples;Min_cycle;Max_cycle;Signal;HPM_P1;HPM_P2
2023/03/31 00:02:21;;;;;;;;;;;26.50;99.90;;;;;;4918643;29;20001;-54
2023/03/31 00:04:51;;;;;;;;;;;26.50;99.90;;;;;;4918732;29;19922;-55
2023/03/31 00:07:20;;;;;;;;;;;26.50;99.90;;;;;;4918271;29;20352;-54
2023/03/31 00:09:53;;;;;;;;;;;26.50;99.90;;;;;;4932986;29;20267;-56
2023/03/31 00:12:19;;;;;;;;;;;26.50;99.90;;;;;;4918424;29;19911;-54
2023/03/31 00:14:45;;;;;;;;;;;26.50;99.90;;;;;;4918294;29;19955;-56
2023/03/31 00:17:11;;;;;;;;;;;26.50;99.90;;;;;;4918328;29;20327;-55
2023/03/31 00:19:37;;;;;;;;;;;26.50;99.90;;;;;;4918329;29;19914;-55
2023/03/31 00:22:04;;;;;;;;;;;26.50;99.90;;;;;;4917082;29;20021;-55
2023/03/31 00:24:31;;;;;;;;;;;26.50;99.90;;;;;;4918394;29;20010;-54
2023/03/31 00:27:00;;;;;;;;;;;26.40;99.90;;;;;;4918105;29;19961;-54
2023/03/31 00:29:26;;;;;;;;;;;26.50;99.90;;;;;;4917952;29;19917;-55
2023/03/31 00:31:53;;;;;;;;;;;26.40;99.90;;;;;;4918108;29;19990;-55
2023/03/31 00:34:18;;;;;;;;;;;26.40;99.90;;;;;;4918105;29;19913;-55
2023/03/31 00:36:46;;;;;;;;;;;26.50;99.90;;;;;;4917869;29;19998;-54
2023/03/31 00:39:13;;;;;;;;;;;26.40;99.90;;;;;;4917984;29;20010;-54
2023/03/31 00:41:39;;;;;;;;;;;26.40;99.90;;;;;;4918046;29;19907;-55
2023/03/31 00:44:07;;;;;;;;;;;26.40;99.90;;;;;;4917963;29;19937;-56
2023/03/31 00:46:36;;;;;;;;;;;26.40;99.90;;;;;;4918199;29;20271;-55
2023/03/31 00:49:02;;;;;;;;;;;26.40;99.90;;;;;;4917810;29;19907;-54
2023/03/31 00:51:30;;;;;;;;;;;26.40;99.90;;;;;;4917638;29;19907;-54
2023/03/31 00:53:58;;;;;;;;;;;26.40;99.90;;;;;;4917477;29;19911;-56
2023/03/31 00:56:25;;;;;;;;;;;26.40;99.90;;;;;;4932337;29;19907;-54
2023/03/31 00:58:56;;;;;;;;;;;26.40;99.90;;;;;;4917696;29;20324;-55
2023/03/31 01:01:25;;;;;;;;;;;26.30;99.90;;;;;;4917350;29;19919;-55
2023/03/31 01:03:51;;;;;;;;;;;26.40;99.90;;;;;;4917329;29;19939;-54
2023/03/31 01:06:18;;;;;;;;;;;26.40;99.90;;;;;;4917509;29;20451;-54
2023/03/31 01:08:48;;;;;;;;;;;26.40;99.90;;;;;;4917302;29;19930;-54
2023/03/31 01:11:15;;;;;;;;;;;26.40;99.90;;;;;;4917471;29;20021;-55
2023/03/31 01:13:42;;;;;;;;;;;26.30;99.90;;;;;;4917254;29;20363;-55
2023/03/31 01:16:08;;;;;;;;;;;26.40;99.90;;;;;;4931654;29;19907;-56
2023/03/31 01:18:34;;;;;;;;;;;26.30;99.90;;;;;;4917193;29;19911;-54
2023/03/31 01:21:02;;;;;;;;;;;26.30;99.90;;;;;;4917070;29;19907;-54
2023/03/31 01:23:49;;;;;;;;;;;26.30;99.90;;;;;;4931260;29;19914;-53
2023/03/31 01:26:37;;;;;;;;;;;26.30;99.90;;;;;;4917028;29;20261;-53
2023/03/31 01:29:24;;;;;;;;;;;26.30;99.90;;;;;;4917001;29;19997;-56
2023/03/31 01:31:49;;;;;;;;;;;26.40;99.90;;;;;;4916780;29;20249;-54
2023/03/31 01:34:15;;;;;;;;;;;26.30;99.90;;;;;;4916591;29;19907;-53
2023/03/31 01:36:53;;;;;;;;;;;26.30;99.90;;;;;;4916727;29;19962;-54
2023/03/31 01:39:37;;;;;;;;;;;26.30;99.90;;;;;;4916788;29;20375;-53
2023/03/31 01:42:21;;;;;;;;;;;26.30;99.90;;;;;;4917100;29;19961;-54
2023/03/31 01:44:49;;;;;;;;;;;26.30;99.90;;;;;;4916604;29;19922;-53
2023/03/31 01:47:21;;;;;;;;;;;26.30;99.90;;;;;;4916703;29;20276;-55
2023/03/31 01:50:01;;;;;;;;;;;26.30;99.90;;;;;;4916777;29;20312;-55
2023/03/31 01:52:26;;;;;;;;;;;26.30;99.90;;;;;;4916445;29;19907;-54
2023/03/31 01:55:00;;;;;;;;;;;26.30;99.90;;;;;;4916673;29;20378;-54
2023/03/31 01:57:25;;;;;;;;;;;26.30;99.90;;;;;;4916631;29;20327;-55
2023/03/31 01:59:55;;;;;;;;;;;26.30;99.90;;;;;;4916881;29;19918;-54
2023/03/31 02:02:26;;;;;;;;;;;26.20;99.90;;;;;;4916411;29;19935;-54
2023/03/31 02:04:55;;;;;;;;;;;26.30;99.90;;;;;;4916495;29;19922;-53
2023/03/31 02:07:25;;;;;;;;;;;26.30;99.90;;;;;;4916087;29;20424;-52
2023/03/31 02:09:54;;;;;;;;;;;26.20;99.90;;;;;;4916521;29;19911;-51
2023/03/31 02:12:21;;;;;;;;;;;26.20;99.90;;;;;;4916664;29;19907;-52
2023/03/31 02:14:49;;;;;;;;;;;26.20;99.90;;;;;;4916329;29;19907;-52
2023/03/31 02:17:17;;;;;;;;;;;26.20;99.90;;;;;;4916286;29;20006;-52
2023/03/31 02:19:44;;;;;;;;;;;26.20;99.90;;;;;;4916351;29;19914;-53
2023/03/31 02:22:11;;;;;;;;;;;26.20;99.90;;;;;;4916072;29;19907;-52
2023/03/31 02:24:37;;;;;;;;;;;26.20;99.90;;;;;;4916270;29;19911;-53
2023/03/31 02:27:08;;;;;;;;;;;26.20;99.90;;;;;;4916303;29;19918;-53
2023/03/31 02:29:34;;;;;;;;;;;26.20;99.90;;;;;;4916206;29;19962;-52
2023/03/31 02:32:05;;;;;;;;;;;26.20;99.90;;;;;;4916061;29;19949;-53
2023/03/31 02:34:30;;;;;;;;;;;26.20;99.90;;;;;;4916299;29;20420;-53
2023/03/31 02:36:56;;;;;;;;;;;26.20;99.90;;;;;;4916133;29;20024;-52
2023/03/31 02:39:25;;;;;;;;;;;26.20;99.90;;;;;;4930864;29;19907;-52
2023/03/31 02:41:51;;;;;;;;;;;26.20;99.90;;;;;;4916143;29;19913;-51
2023/03/31 02:44:17;;;;;;;;;;;26.10;99.90;;;;;;4915678;29;19998;-52
2023/03/31 02:46:43;;;;;;;;;;;26.20;99.90;;;;;;4919502;29;19914;-52
2023/03/31 02:49:10;;;;;;;;;;;26.10;99.90;;;;;;4919810;29;20315;-52
2023/03/31 02:51:54;;;;;;;;;;;26.20;99.90;;;;;;4920057;29;19907;-52
2023/03/31 02:54:20;;;;;;;;;;;26.10;99.90;;;;;;4919808;29;19998;-51
2023/03/31 02:56:51;;;;;;;;;;;26.10;99.90;;;;;;4919819;29;19998;-53
2023/03/31 03:02:02;;;;;;;;;;;26.10;99.90;;;;;;4936586;29;19923;-46
2023/03/31 03:04:28;;;;;;;;;;;26.10;99.90;;;;;;4941564;29;19922;-46
2023/03/31 03:07:00;;;;;;;;;;;26.10;99.90;;;;;;4938764;29;19958;-46
2023/03/31 03:09:28;;;;;;;;;;;26.10;99.90;;;;;;4925265;29;19907;-46
2023/03/31 03:12:09;;;;;;;;;;;26.10;99.90;;;;;;4938752;29;19907;-45
2023/03/31 03:14:38;;;;;;;;;;;26.00;99.90;;;;;;4938466;29;19933;-45
2023/03/31 03:17:09;;;;;;;;;;;26.00;99.90;;;;;;4938250;29;19907;-46
2023/03/31 03:19:35;;;;;;;;;;;26.00;99.90;;;;;;4938464;29;19936;-46
2023/03/31 03:22:00;;;;;;;;;;;26.00;99.90;;;;;;4938244;29;19961;-46
2023/03/31 03:24:28;;;;;;;;;;;26.00;99.90;;;;;;4938393;29;20033;-46
2023/03/31 03:26:54;;;;;;;;;;;26.00;99.90;;;;;;4938337;29;19913;-46
2023/03/31 03:29:20;;;;;;;;;;;26.00;99.90;;;;;;4925522;29;19917;-46
2023/03/31 03:31:46;;;;;;;;;;;26.00;99.90;;;;;;4938310;29;19907;-46
2023/03/31 03:34:11;;;;;;;;;;;26.00;99.90;;;;;;4938155;29;19984;-46
2023/03/31 03:36:38;;;;;;;;;;;26.00;99.90;;;;;;4938085;29;19910;-46
2023/03/31 03:39:04;;;;;;;;;;;26.00;99.90;;;;;;4937923;29;19958;-46
2023/03/31 03:41:32;;;;;;;;;;;26.00;99.90;;;;;;4937923;29;19907;-46
2023/03/31 03:43:58;;;;;;;;;;;26.00;99.90;;;;;;4938026;29;20344;-46
2023/03/31 03:46:23;;;;;;;;;;;25.90;99.90;;;;;;4937890;29;20335;-46
2023/03/31 03:48:49;;;;;;;;;;;25.90;99.90;;;;;;4937885;29;19907;-46
2023/03/31 03:51:15;;;;;;;;;;;25.90;99.90;;;;;;4938003;29;19914;-46
2023/03/31 03:53:40;;;;;;;;;;;25.90;99.90;;;;;;4937398;29;19907;-46
2023/03/31 03:56:06;;;;;;;;;;;25.90;99.90;;;;;;4937581;29;19950;-46
2023/03/31 03:58:31;;;;;;;;;;;25.90;99.90;;;;;;4952437;29;20418;-46
2023/03/31 04:00:57;;;;;;;;;;;25.90;99.90;;;;;;4962954;23;20006;-51
2023/03/31 04:03:23;;;;;;;;;;;25.90;99.90;;;;;;4937769;29;19910;-52
2023/03/31 04:05:49;;;;;;;;;;;25.90;99.90;;;;;;4937302;29;19921;-51
2023/03/31 04:08:15;;;;;;;;;;;25.80;99.90;;;;;;4937546;29;19907;-52
2023/03/31 04:10:48;;;;;;;;;;;25.90;99.90;;;;;;4952144;29;19956;-51
2023/03/31 04:13:14;;;;;;;;;;;25.80;99.90;;;;;;4937588;29;20022;-52
2023/03/31 04:15:40;;;;;;;;;;;25.80;99.90;;;;;;4937675;29;19915;-52
2023/03/31 04:18:05;;;;;;;;;;;25.80;99.90;;;;;;4937247;29;20383;-52
2023/03/31 04:20:31;;;;;;;;;;;25.80;99.90;;;;;;4937291;29;19949;-52
2023/03/31 04:22:57;;;;;;;;;;;25.80;99.90;;;;;;4937199;29;19946;-52
2023/03/31 04:25:22;;;;;;;;;;;25.80;99.90;;;;;;4937008;29;19919;-52
2023/03/31 04:27:54;;;;;;;;;;;25.80;99.90;;;;;;4937283;29;19954;-52
2023/03/31 04:30:23;;;;;;;;;;;25.80;99.90;;;;;;4967621;28;20256;-52
2023/03/31 04:32:53;;;;;;;;;;;25.80;99.90;;;;;;4937081;29;20008;-52
2023/03/31 04:35:20;;;;;;;;;;;25.80;99.90;;;;;;4936790;29;19918;-52
2023/03/31 04:37:49;;;;;;;;;;;25.80;99.90;;;;;;4936862;29;19907;-53
2023/03/31 04:40:16;;;;;;;;;;;25.80;99.90;;;;;;4936869;29;20386;-53
2023/03/31 04:42:42;;;;;;;;;;;25.70;99.90;;;;;;4936738;29;19907;-53
2023/03/31 04:45:08;;;;;;;;;;;25.80;99.90;;;;;;4936646;29;19919;-53
2023/03/31 04:47:34;;;;;;;;;;;25.80;99.90;;;;;;4936435;29;19906;-53
2023/03/31 04:49:59;;;;;;;;;;;25.70;99.90;;;;;;4937005;29;19914;-53
2023/03/31 04:52:25;;;;;;;;;;;25.70;99.90;;;;;;4936583;29;19907;-52
2023/03/31 04:54:50;;;;;;;;;;;25.70;99.90;;;;;;4936731;29;20273;-53
2023/03/31 04:57:16;;;;;;;;;;;25.70;99.90;;;;;;4936575;29;19997;-52
2023/03/31 04:59:41;;;;;;;;;;;25.70;99.90;;;;;;4936250;29;19913;-50
2023/03/31 05:02:07;;;;;;;;;;;25.70;99.90;;;;;;4936585;29;19907;-52
2023/03/31 05:04:33;;;;;;;;;;;25.70;99.90;;;;;;4936653;29;19954;-52
2023/03/31 05:06:59;;;;;;;;;;;25.70;99.90;;;;;;4936084;29;19907;-52
2023/03/31 05:09:26;;;;;;;;;;;25.60;99.90;;;;;;4935761;29;20028;-52
2023/03/31 05:11:51;;;;;;;;;;;25.60;99.90;;;;;;4936288;29;19989;-52
2023/03/31 05:14:17;;;;;;;;;;;25.60;99.90;;;;;;4936093;29;19907;-51
2023/03/31 05:16:43;;;;;;;;;;;25.60;99.90;;;;;;4936105;29;20418;-53
2023/03/31 05:19:09;;;;;;;;;;;25.60;99.90;;;;;;4936238;29;19907;-52
2023/03/31 05:21:36;;;;;;;;;;;25.60;99.90;;;;;;4936284;29;19906;-52
2023/03/31 05:24:02;;;;;;;;;;;25.60;99.90;;;;;;4936130;29;19961;-52
2023/03/31 05:26:27;;;;;;;;;;;25.60;99.90;;;;;;4936187;29;20115;-52
2023/03/31 05:28:53;;;;;;;;;;;25.60;99.90;;;;;;4936008;29;19907;-53
2023/03/31 05:31:19;;;;;;;;;;;25.60;99.90;;;;;;4935942;29;19914;-52
2023/03/31 05:33:44;;;;;;;;;;;25.60;99.90;;;;;;4934997;29;19907;-52
2023/03/31 05:36:11;;;;;;;;;;;25.50;99.90;;;;;;4935872;29;20001;-54
2023/03/31 05:38:37;;;;;;;;;;;25.50;99.90;;;;;;4935675;29;19915;-53
2023/03/31 05:41:03;;;;;;;;;;;25.50;99.90;;;;;;4935926;29;19914;-53
2023/03/31 05:43:29;;;;;;;;;;;25.50;99.90;;;;;;4935901;29;19906;-53
2023/03/31 05:45:54;;;;;;;;;;;25.50;99.90;;;;;;4935467;29;19915;-53
2023/03/31 05:48:20;;;;;;;;;;;25.50;99.90;;;;;;4935702;29;19911;-54
2023/03/31 05:50:46;;;;;;;;;;;25.50;99.90;;;;;;4935629;29;19914;-54
2023/03/31 05:53:12;;;;;;;;;;;25.50;99.90;;;;;;4935539;29;20338;-53
2023/03/31 05:55:37;;;;;;;;;;;25.50;99.90;;;;;;4935476;29;19930;-54
2023/03/31 05:58:03;;;;;;;;;;;25.50;99.90;;;;;;4935676;29;19910;-53
2023/03/31 06:00:30;;;;;;;;;;;25.50;99.90;;;;;;4935072;29;20044;-53
2023/03/31 06:02:56;;;;;;;;;;;25.50;99.90;;;;;;4935561;29;20371;-54
2023/03/31 06:05:25;;;;;;;;;;;25.50;99.90;;;;;;4935180;29;19969;-53
2023/03/31 06:07:51;;;;;;;;;;;25.50;99.90;;;;;;4935348;29;20360;-52
2023/03/31 06:10:17;;;;;;;;;;;25.50;99.90;;;;;;4935436;29;19913;-53
2023/03/31 06:12:42;;;;;;;;;;;25.50;99.90;;;;;;4922698;29;19907;-53
2023/03/31 06:15:08;;;;;;;;;;;25.50;99.90;;;;;;4935246;29;19911;-53
2023/03/31 06:17:34;;;;;;;;;;;25.40;99.90;;;;;;4935443;29;20363;-53
2023/03/31 06:19:59;;;;;;;;;;;25.40;99.90;;;;;;4935205;29;20248;-52
2023/03/31 06:22:25;;;;;;;;;;;25.40;99.90;;;;;;4935002;29;19906;-52
2023/03/31 06:24:50;;;;;;;;;;;25.40;99.90;;;;;;4935244;29;19915;-51
2023/03/31 06:27:16;;;;;;;;;;;25.40;99.90;;;;;;4935145;29;20295;-52
2023/03/31 06:29:42;;;;;;;;;;;25.40;99.90;;;;;;4934871;29;19997;-52
2023/03/31 06:32:07;;;;;;;;;;;25.40;99.90;;;;;;4935155;29;20110;-51
2023/03/31 06:34:33;;;;;;;;;;;25.40;99.90;;;;;;4949916;29;20398;-52
2023/03/31 06:36:58;;;;;;;;;;;25.40;99.90;;;;;;4934794;29;19918;-51
2023/03/31 06:39:24;;;;;;;;;;;25.40;99.90;;;;;;4935094;29;19906;-52
2023/03/31 06:41:49;;;;;;;;;;;25.40;99.90;;;;;;4935052;29;19907;-52
2023/03/31 06:44:15;;;;;;;;;;;25.40;99.90;;;;;;4934824;29;20350;-52
2023/03/31 06:46:41;;;;;;;;;;;25.50;99.90;;;;;;4935143;29;19917;-52
2023/03/31 06:49:07;;;;;;;;;;;25.40;99.90;;;;;;4935244;29;19942;-55
2023/03/31 06:51:33;;;;;;;;;;;25.40;99.90;;;;;;4935274;29;20350;-53
2023/03/31 06:53:58;;;;;;;;;;;25.40;99.90;;;;;;4934723;29;19930;-54
2023/03/31 06:56:25;;;;;;;;;;;25.40;99.90;;;;;;4934910;29;19946;-53
2023/03/31 06:58:50;;;;;;;;;;;25.40;99.90;;;;;;4934838;29;19907;-53
2023/03/31 07:01:16;;;;;;;;;;;25.40;99.90;;;;;;4934577;29;19974;-58
2023/03/31 07:03:41;;;;;;;;;;;25.40;99.90;;;;;;4934637;29;19911;-54
2023/03/31 07:06:07;;;;;;;;;;;25.40;99.90;;;;;;4935108;29;20335;-52
2023/03/31 07:08:33;;;;;;;;;;;25.40;99.90;;;;;;4934639;29;19914;-55
2023/03/31 07:10:59;;;;;;;;;;;25.40;99.90;;;;;;4934758;29;20306;-54
2023/03/31 07:13:25;;;;;;;;;;;25.40;99.90;;;;;;4934692;29;19907;-53
2023/03/31 07:15:51;;;;;;;;;;;25.40;99.90;;;;;;4934497;29;20374;-54
2023/03/31 07:18:17;;;;;;;;;;;25.50;99.90;;;;;;4934816;29;19914;-54
2023/03/31 07:20:46;;;;;;;;;;;25.50;99.90;;;;;;4934614;29;19930;-53
2023/03/31 07:23:11;;;;;;;;;;;25.40;99.90;;;;;;4934724;29;19906;-55
2023/03/31 07:25:37;;;;;;;;;;;25.50;99.90;;;;;;4934707;29;19915;-53
2023/03/31 07:28:04;;;;;;;;;;;25.40;99.90;;;;;;4934524;29;19907;-53
2023/03/31 07:30:30;;;;;;;;;;;25.50;99.90;;;;;;4934391;29;19917;-54
2023/03/31 07:32:55;;;;;;;;;;;25.50;99.90;;;;;;4952679;29;19910;-53
2023/03/31 07:35:21;;;;;;;;;;;25.50;99.90;;;;;;4938092;29;19998;-54
2023/03/31 07:37:48;;;;;;;;;;;25.40;99.90;;;;;;4938002;29;19907;-53
2023/03/31 07:40:15;;;;;;;;;;;25.50;99.90;;;;;;4938009;29;19914;-52
2023/03/31 07:42:41;;;;;;;;;;;25.50;99.90;;;;;;4937905;29;20001;-53
2023/03/31 07:45:07;;;;;;;;;;;25.50;99.90;;;;;;4937893;29;20006;-52
2023/03/31 07:47:32;;;;;;;;;;;25.50;99.90;;;;;;4937641;29;19985;-53
2023/03/31 07:49:58;;;;;;;;;;;25.50;99.90;;;;;;4937915;29;19910;-53
2023/03/31 07:52:24;;;;;;;;;;;25.50;99.90;;;;;;4937422;29;19907;-53
2023/03/31 07:54:50;;;;;;;;;;;25.50;99.90;;;;;;4937720;29;19929;-53
2023/03/31 07:57:18;;;;;;;;;;;25.60;99.90;;;;;;4937498;29;20556;-53
2023/03/31 07:59:43;;;;;;;;;;;25.60;99.90;;;;;;4937431;29;19906;-53
2023/03/31 08:02:11;;;;;;;;;;;25.60;99.90;;;;;;4937656;29;20367;-54
2023/03/31 08:04:37;;;;;;;;;;;25.60;99.90;;;;;;4937839;29;19911;-54
2023/03/31 08:07:02;;;;;;;;;;;25.60;99.90;;;;;;4937322;29;19907;-54
2023/03/31 08:09:28;;;;;;;;;;;25.60;99.90;;;;;;4937494;29;20382;-54
2023/03/31 08:11:53;;;;;;;;;;;25.60;99.90;;;;;;4937400;29;19961;-53
2023/03/31 08:14:19;;;;;;;;;;;25.60;99.90;;;;;;4937382;29;19907;-53
2023/03/31 08:16:45;;;;;;;;;;;25.60;99.90;;;;;;4937401;29;19929;-54
2023/03/31 08:19:10;;;;;;;;;;;25.70;99.90;;;;;;4937415;29;19922;-54
2023/03/31 08:21:36;;;;;;;;;;;25.70;99.90;;;;;;4937287;29;20327;-53
2023/03/31 08:24:01;;;;;;;;;;;25.70;99.90;;;;;;4937021;29;19933;-54
2023/03/31 08:26:27;;;;;;;;;;;25.70;99.90;;;;;;4937136;29;19958;-54
2023/03/31 08:28:53;;;;;;;;;;;25.70;99.90;;;;;;4937024;29;19906;-54
2023/03/31 08:31:20;;;;;;;;;;;25.70;99.90;;;;;;4936891;29;19910;-55
2023/03/31 08:33:46;;;;;;;;;;;25.70;99.90;;;;;;4936976;29;19977;-54
2023/03/31 08:36:12;;;;;;;;;;;25.70;99.90;;;;;;4937206;29;20346;-54
2023/03/31 08:38:40;;;;;;;;;;;25.70;99.90;;;;;;4937083;29;19907;-55
2023/03/31 08:41:26;;;;;;;;;;;25.70;99.90;;;;;;4936971;29;19907;-55
2023/03/31 08:43:53;;;;;;;;;;;25.70;99.90;;;;;;4917413;29;20263;-54
2023/03/31 08:46:19;;;;;;;;;;;25.70;99.90;;;;;;4951284;29;19973;-54
2023/03/31 08:48:47;;;;;;;;;;;25.70;99.90;;;;;;4951555;29;20263;-54
2023/03/31 08:51:19;;;;;;;;;;;25.80;99.90;;;;;;4937003;29;20366;-54
2023/03/31 08:53:48;;;;;;;;;;;25.80;99.90;;;;;;4936406;29;19907;-54
2023/03/31 08:56:15;;;;;;;;;;;25.70;99.90;;;;;;4936698;29;19906;-54
2023/03/31 08:58:43;;;;;;;;;;;25.80;99.90;;;;;;4936585;29;19961;-55
2023/03/31 09:01:08;;;;;;;;;;;25.80;99.90;;;;;;4936318;29;19929;-54
2023/03/31 09:03:57;;;;;;;;;;;25.80;99.90;;;;;;4936500;29;19910;-54
2023/03/31 09:06:30;;;;;;;;;;;25.80;99.90;;;;;;4926789;29;20398;-53
2023/03/31 09:09:00;;;;;;;;;;;25.80;99.90;;;;;;4936165;29;19918;-52
2023/03/31 09:11:37;;;;;;;;;;;25.80;99.90;;;;;;4936342;29;19911;-54
2023/03/31 09:14:21;;;;;;;;;;;25.80;99.90;;;;;;4936105;29;20367;-54
2023/03/31 09:16:58;;;;;;;;;;;25.80;99.90;;;;;;4936094;29;19907;-54
2023/03/31 09:19:44;;;;;;;;;;;25.80;99.90;;;;;;4923634;29;20386;-54
2023/03/31 09:22:13;;;;;;;;;;;25.80;99.90;;;;;;4935716;29;19907;-54
2023/03/31 09:24:44;;;;;;;;;;;25.80;99.90;;;;;;4936043;29;19918;-54
2023/03/31 09:27:11;;;;;;;;;;;25.80;99.90;;;;;;4936132;29;19954;-55
2023/03/31 09:29:55;;;;;;;;;;;25.80;99.90;;;;;;4935807;29;19907;-55
2023/03/31 09:32:23;;;;;;;;;;;25.80;99.90;;;;;;4935749;29;19938;-54
2023/03/31 09:34:52;;;;;;;;;;;25.80;99.90;;;;;;4935996;29;19918;-55
2023/03/31 09:37:18;;;;;;;;;;;25.80;99.90;;;;;;4935587;29;20894;-55
2023/03/31 09:39:44;;;;;;;;;;;25.90;99.90;;;;;;4936028;29;20351;-56
2023/03/31 09:42:13;;;;;;;;;;;25.80;99.90;;;;;;4935594;29;20363;-55
2023/03/31 09:44:41;;;;;;;;;;;25.90;99.90;;;;;;4935418;29;19917;-56
2023/03/31 09:47:12;;;;;;;;;;;25.90;99.90;;;;;;4935685;29;19993;-55
2023/03/31 09:49:39;;;;;;;;;;;25.90;99.90;;;;;;4935713;29;20048;-55
2023/03/31 09:52:12;;;;;;;;;;;25.90;99.90;;;;;;4935259;29;19938;-55
2023/03/31 09:54:40;;;;;;;;;;;25.90;99.90;;;;;;4935472;29;19921;-56
2023/03/31 09:57:21;;;;;;;;;;;25.90;99.90;;;;;;4935541;29;19914;-54
2023/03/31 09:59:49;;;;;;;;;;;26.00;99.90;;;;;;4935182;29;19906;-55
2023/03/31 10:02:24;;;;;;;;;;;26.00;99.90;;;;;;4935513;29;19906;-54
2023/03/31 10:04:49;;;;;;;;;;;26.00;99.90;;;;;;4949863;29;19917;-54
2023/03/31 10:07:20;;;;;;;;;;;26.00;99.90;;;;;;4935325;29;20283;-56
2023/03/31 10:09:45;;;;;;;;;;;26.10;99.90;;;;;;4935604;29;19906;-55
2023/03/31 10:12:30;;;;;;;;;;;26.10;99.90;;;;;;4935030;29;20248;-55
2023/03/31 10:15:18;;;;;;;;;;;26.10;99.90;;;;;;4935170;29;19911;-54
2023/03/31 10:17:45;;;;;;;;;;;26.10;99.90;;;;;;4935571;29;19993;-55
2023/03/31 10:20:29;;;;;;;;;;;26.10;99.90;;;;;;4935125;29;19922;-55
2023/03/31 10:22:55;;;;;;;;;;;26.10;99.90;;;;;;4935083;29;19914;-55
2023/03/31 10:25:23;;;;;;;;;;;26.20;99.90;;;;;;4935094;29;19915;-57
2023/03/31 10:27:51;;;;;;;;;;;26.20;99.90;;;;;;4935233;29;19913;-55
2023/03/31 10:30:21;;;;;;;;;;;26.20;99.90;;;;;;4935066;29;19949;-54
2023/03/31 10:32:46;;;;;;;;;;;26.20;99.90;;;;;;4935502;29;19906;-54
2023/03/31 10:35:31;;;;;;;;;;;26.20;99.90;;;;;;4932577;29;19923;-55
2023/03/31 10:37:59;;;;;;;;;;;26.20;99.90;;;;;;4934921;29;20061;-55
2023/03/31 10:40:25;;;;;;;;;;;26.30;99.90;;;;;;4935020;29;19907;-55
2023/03/31 10:43:10;;;;;;;;;;;26.30;99.90;;;;;;4935030;29;19906;-56
2023/03/31 10:45:40;;;;;;;;;;;26.30;99.90;;;;;;4934981;29;19921;-56
2023/03/31 10:48:15;;;;;;;;;;;26.30;99.90;;;;;;4922871;29;19906;-56
2023/03/31 10:50:42;;;;;;;;;;;26.30;99.90;;;;;;4934891;29;20047;-55
2023/03/31 10:53:12;;;;;;;;;;;26.30;99.90;;;;;;4934695;29;19918;-54
2023/03/31 10:55:42;;;;;;;;;;;26.40;99.90;;;;;;4934881;29;20415;-56
2023/03/31 10:58:20;;;;;;;;;;;26.40;99.90;;;;;;4934878;29;19930;-56
2023/03/31 11:00:51;;;;;;;;;;;26.40;99.90;;;;;;4949546;29;19934;-55
2023/03/31 11:03:35;;;;;;;;;;;26.40;99.90;;;;;;4935034;29;19914;-55
2023/03/31 11:06:19;;;;;;;;;;;26.40;99.90;;;;;;4935405;29;19922;-55
2023/03/31 11:09:17;;;;;;;;;;;26.50;99.90;;;;;;4938654;29;20005;-55
2023/03/31 11:11:58;;;;;;;;;;;26.50;99.90;;;;;;4908965;29;19907;-54
2023/03/31 11:14:24;;;;;;;;;;;26.50;99.90;;;;;;4935531;29;19945;-55
2023/03/31 11:17:17;;;;;;;;;;;26.50;99.90;;;;;;4938645;29;19935;-54
2023/03/31 11:19:45;;;;;;;;;;;26.50;99.90;;;;;;4953152;29;19914;-55
2023/03/31 11:22:11;;;;;;;;;;;26.60;99.90;;;;;;4938183;29;20061;-55
2023/03/31 11:25:09;;;;;;;;;;;26.60;99.90;;;;;;4938236;29;20402;-55
2023/03/31 11:27:34;;;;;;;;;;;26.60;99.90;;;;;;4920407;29;20008;-54
2023/03/31 11:30:06;;;;;;;;;;;26.60;99.90;;;;;;4938100;29;19922;-54
2023/03/31 11:32:41;;;;;;;;;;;26.60;99.90;;;;;;4938085;29;20283;-55
2023/03/31 11:35:15;;;;;;;;;;;26.60;99.90;;;;;;4938134;29;20252;-54
2023/03/31 11:38:00;;;;;;;;;;;26.70;99.90;;;;;;4937617;29;19918;-55
2023/03/31 11:40:43;;;;;;;;;;;26.70;99.90;;;;;;4937996;29;19942;-54
2023/03/31 11:43:09;;;;;;;;;;;26.70;99.90;;;;;;4938041;29;19918;-56
2023/03/31 11:45:40;;;;;;;;;;;26.70;99.90;;;;;;4937830;29;19914;-55
2023/03/31 11:48:09;;;;;;;;;;;26.70;99.90;;;;;;4937704;29;19954;-54
2023/03/31 11:50:38;;;;;;;;;;;26.80;99.90;;;;;;4937711;29;19907;-54
2023/03/31 11:53:07;;;;;;;;;;;26.70;99.90;;;;;;4937470;29;19906;-55
2023/03/31 11:55:34;;;;;;;;;;;26.80;99.90;;;;;;4937694;29;19907;-54
2023/03/31 11:58:02;;;;;;;;;;;26.80;99.90;;;;;;4937616;29;19961;-54
2023/03/31 12:00:35;;;;;;;;;;;26.80;99.90;;;;;;4937456;29;20298;-54
2023/03/31 12:03:00;;;;;;;;;;;26.80;99.90;;;;;;4937433;29;20311;-54
2023/03/31 12:05:29;;;;;;;;;;;26.80;99.90;;;;;;4937530;29;19922;-54
2023/03/31 12:07:55;;;;;;;;;;;26.90;99.90;;;;;;4937255;29;20414;-54
2023/03/31 12:10:21;;;;;;;;;;;26.90;99.90;;;;;;4937764;29;19906;-54
2023/03/31 12:13:00;;;;;;;;;;;26.90;99.90;;;;;;4937188;29;19907;-54
2023/03/31 12:15:31;;;;;;;;;;;26.90;99.90;;;;;;4937187;29;20240;-54
2023/03/31 12:18:15;;;;;;;;;;;26.90;99.90;;;;;;4937010;29;19945;-55
2023/03/31 12:20:52;;;;;;;;;;;26.90;99.90;;;;;;4937244;29;19907;-54
2023/03/31 12:23:19;;;;;;;;;;;27.00;99.90;;;;;;4923345;29;20398;-54
2023/03/31 12:25:49;;;;;;;;;;;27.00;99.90;;;;;;4937163;29;20025;-55
2023/03/31 12:28:15;;;;;;;;;;;27.00;99.90;;;;;;4937225;29;19977;-55
2023/03/31 12:30:41;;;;;;;;;;;27.00;99.90;;;;;;4937019;29;20009;-55
2023/03/31 12:33:10;;;;;;;;;;;27.00;99.90;;;;;;4937143;29;19907;-55
2023/03/31 12:35:56;;;;;;;;;;;27.00;99.90;;;;;;4937041;29;19906;-55
2023/03/31 12:38:34;;;;;;;;;;;27.00;99.90;;;;;;4936964;29;19962;-55
2023/03/31 12:41:10;;;;;;;;;;;27.00;99.90;;;;;;4936669;29;19962;-55
2023/03/31 12:43:36;;;;;;;;;;;27.00;99.90;;;;;;4936598;29;19906;-55
2023/03/31 12:46:16;;;;;;;;;;;27.00;99.90;;;;;;4936554;29;19969;-55
2023/03/31 12:49:01;;;;;;;;;;;27.00;99.90;;;;;;4936817;29;20005;-54
2023/03/31 12:51:42;;;;;;;;;;;27.00;99.90;;;;;;4924072;29;19906;-55
2023/03/31 12:54:07;;;;;;;;;;;27.00;99.90;;;;;;4936556;29;19906;-54
2023/03/31 12:56:51;;;;;;;;;;;27.10;99.90;;;;;;4936421;29;19966;-55
2023/03/31 12:59:18;;;;;;;;;;;27.10;99.90;;;;;;4936391;29;19914;-57
2023/03/31 13:02:02;;;;;;;;;;;27.10;99.90;;;;;;4936233;29;20334;-55
2023/03/31 13:04:27;;;;;;;;;;;27.10;99.90;;;;;;4936440;29;19993;-56
2023/03/31 13:06:55;;;;;;;;;;;27.10;99.90;;;;;;4936486;29;20372;-56
2023/03/31 13:09:32;;;;;;;;;;;27.10;99.90;;;;;;4936286;29;19962;-56
2023/03/31 13:12:05;;;;;;;;;;;27.10;99.90;;;;;;4936254;29;20363;-56
2023/03/31 13:14:36;;;;;;;;;;;27.20;99.90;;;;;;4936155;29;19914;-56
2023/03/31 13:17:12;;;;;;;;;;;27.20;99.90;;;;;;4934214;29;19911;-56
2023/03/31 13:19:39;;;;;;;;;;;27.20;99.90;;;;;;4950602;29;19910;-55
2023/03/31 13:22:05;;;;;;;;;;;27.20;99.90;;;;;;4935829;29;19950;-55
2023/03/31 13:24:31;;;;;;;;;;;27.20;99.90;;;;;;4936026;29;19913;-54
2023/03/31 13:26:59;;;;;;;;;;;27.20;99.90;;;;;;4936186;29;19914;-55
2023/03/31 13:29:38;;;;;;;;;;;27.20;99.90;;;;;;4966418;28;19907;-56
2023/03/31 13:32:05;;;;;;;;;;;27.20;99.90;;;;;;4935999;29;20001;-56
2023/03/31 13:34:40;;;;;;;;;;;27.20;99.90;;;;;;4935951;29;19917;-55
2023/03/31 13:37:08;;;;;;;;;;;27.20;99.90;;;;;;4933941;29;19918;-57
2023/03/31 13:39:53;;;;;;;;;;;27.30;99.90;;;;;;4924975;29;19962;-57
2023/03/31 13:42:22;;;;;;;;;;;27.30;99.90;;;;;;4924383;29;19950;-56
2023/03/31 13:45:00;;;;;;;;;;;27.30;99.90;;;;;;4921623;29;19919;-55
2023/03/31 13:47:35;;;;;;;;;;;27.30;99.90;;;;;;4938793;29;19966;-53
2023/03/31 13:50:00;;;;;;;;;;;27.30;99.90;;;;;;4935668;29;19907;-55
2023/03/31 13:52:29;;;;;;;;;;;27.30;99.90;;;;;;4911514;29;20321;-53
2023/03/31 13:54:55;;;;;;;;;;;27.30;99.90;;;;;;4923761;29;19910;-55
2023/03/31 13:57:38;;;;;;;;;;;27.30;99.90;;;;;;4931824;29;20005;-53
2023/03/31 14:00:23;;;;;;;;;;;27.40;99.90;;;;;;4935080;29;19923;-53
2023/03/31 14:03:18;;;;;;;;;;;27.40;99.90;;;;;;4935595;29;19911;-55
2023/03/31 14:05:49;;;;;;;;;;;27.40;99.90;;;;;;4921521;29;19935;-55
2023/03/31 14:08:33;;;;;;;;;;;27.40;99.90;;;;;;4915974;29;19907;-55
2023/03/31 14:11:34;;;;;;;;;;;27.40;99.90;;;;;;4922113;29;20258;-56
2023/03/31 14:14:08;;;;;;;;;;;27.40;99.90;;;;;;4895752;29;20241;-55
2023/03/31 14:16:44;;;;;;;;;;;27.40;99.90;;;;;;4916756;29;19915;-54
2023/03/31 14:19:31;;;;;;;;;;;27.50;99.90;;;;;;4916558;29;19911;-53
2023/03/31 14:21:59;;;;;;;;;;;27.50;99.90;;;;;;4936009;29;19907;-53
2023/03/31 14:24:28;;;;;;;;;;;27.50;99.90;;;;;;4918930;29;19955;-55
2023/03/31 14:27:17;;;;;;;;;;;27.50;99.90;;;;;;4926554;29;19961;-57
2023/03/31 14:29:50;;;;;;;;;;;27.50;99.90;;;;;;4934901;29;19914;-57
2023/03/31 14:32:38;;;;;;;;;;;27.50;99.90;;;;;;4935204;29;19913;-58
2023/03/31 14:35:25;;;;;;;;;;;27.50;99.90;;;;;;4915048;29;20005;-57